createdAt,value
2023-04-24T00:02:34.223Z,3.78
2023-04-24T00:07:37.092Z,3.75
2023-04-24T00:12:40.047Z,4.10
2023-04-24T00:17:42.940Z,4.13
2023-04-24T00:22:45.680Z,4.15
2023-04-24T00:27:48.424Z,3.92
2023-04-24T00:32:51.508Z,4.18
2023-04-24T00:37:54.371Z,3.63
2023-04-24T00:42:57.719Z,3.72
2023-04-24T00:48:02.418Z,4.43
2023-04-24T00:53:05.410Z,4.15
2023-04-24T00:58:08.189Z,3.63
2023-04-24T01:03:12.485Z,4.00
2023-04-24T01:08:16.491Z,3.95
2023-04-24T01:13:20.267Z,3.88
2023-04-24T01:18:23.107Z,4.00
2023-04-24T01:23:27.868Z,3.45
2023-04-24T01:28:30.776Z,3.50
2023-04-24T01:33:34.151Z,3.72
2023-04-24T01:38:37.062Z,4.07
2023-04-24T01:43:40.113Z,4.13
2023-04-24T01:48:43.228Z,4.18
2023-04-24T01:53:46.040Z,4.40
2023-04-24T01:58:50.196Z,3.83
2023-04-24T02:03:53.093Z,3.42
2023-04-24T02:08:55.926Z,3.47
2023-04-24T02:13:59.076Z,3.78
2023-04-24T02:19:02.203Z,3.70
2023-04-24T02:24:04.977Z,3.80
2023-04-24T02:29:07.696Z,3.72
2023-04-24T02:34:10.491Z,3.50
2023-04-24T02:39:14.665Z,3.95
2023-04-24T02:44:18.580Z,3.63
2023-04-24T02:49:21.695Z,3.63
2023-04-24T02:54:24.417Z,3.28
2023-04-24T02:59:28.420Z,3.42
2023-04-24T03:04:31.388Z,3.83
2023-04-24T03:09:34.582Z,3.47
2023-04-24T03:14:37.282Z,3.70
2023-04-24T03:19:40.668Z,3.22
2023-04-24T03:24:46.548Z,3.63
2023-04-24T03:29:58.482Z,3.58
2023-04-24T03:35:09.922Z,3.73
2023-04-24T03:40:13.429Z,4.00
2023-04-24T03:45:17.576Z,3.70
2023-04-24T03:50:24.406Z,3.40
2023-04-24T03:55:27.617Z,3.72
2023-04-24T04:00:32.945Z,3.47
2023-04-24T04:05:55.749Z,3.67
2023-04-24T04:10:58.660Z,3.88
2023-04-24T04:16:01.540Z,4.20
2023-04-24T04:21:04.578Z,3.88
2023-04-24T04:26:09.290Z,3.93
2023-04-24T04:31:34.704Z,4.10
2023-04-24T04:36:44.124Z,4.22
2023-04-24T04:42:16.756Z,3.92
2023-04-24T04:47:26.069Z,3.97
2023-04-24T04:52:31.064Z,4.00
2023-04-24T04:57:43.843Z,3.90
2023-04-24T05:02:47.043Z,4.30
2023-04-24T05:07:50.286Z,3.90
2023-04-24T05:12:53.585Z,3.53
2023-04-24T05:17:57.933Z,3.77
2023-04-24T05:23:02.182Z,3.65
2023-04-24T05:28:07.003Z,3.80
2023-04-24T05:33:11.218Z,3.95
2023-04-24T05:38:14.823Z,4.10
2023-04-24T05:43:17.568Z,3.83
2023-04-24T05:48:20.990Z,3.78
2023-04-24T05:53:23.918Z,4.00
2023-04-24T05:58:27.144Z,3.60
2023-04-24T06:03:30.756Z,3.80
2023-04-24T06:08:34.095Z,3.83
2023-04-24T06:13:37.698Z,3.67
2023-04-24T06:18:59.530Z,3.92
2023-04-24T06:24:03.260Z,4.15
2023-04-24T06:29:08.636Z,3.60
2023-04-24T06:34:12.200Z,4.00
2023-04-24T06:39:14.959Z,3.90
2023-04-24T06:44:18.080Z,3.70
2023-04-24T06:49:21.480Z,4.25
2023-04-24T06:54:24.247Z,4.30
2023-04-24T06:59:26.981Z,3.90
2023-04-24T07:04:30.115Z,3.60
2023-04-24T07:09:33.248Z,4.05
2023-04-24T07:14:36.183Z,3.60
2023-04-24T07:19:38.960Z,3.85
2023-04-24T07:24:41.846Z,3.80
2023-04-24T07:29:44.999Z,3.80
2023-04-24T07:34:48.393Z,3.85
2023-04-24T07:39:51.328Z,4.30
2023-04-24T07:44:54.431Z,3.80
2023-04-24T07:49:57.306Z,3.70
2023-04-24T07:55:01.707Z,3.80
2023-04-24T08:00:07.461Z,3.85
2023-04-24T08:05:16.325Z,4.10
2023-04-24T08:10:19.125Z,3.90
2023-04-24T08:15:21.829Z,3.87
2023-04-24T08:20:24.716Z,3.90
2023-04-24T08:25:27.660Z,4.03
2023-04-24T08:30:31.444Z,3.80
2023-04-24T08:35:34.423Z,3.63
2023-04-24T08:40:38.703Z,4.00
2023-04-24T08:45:42.026Z,3.90
2023-04-24T08:50:46.016Z,3.95
2023-04-24T08:55:49.966Z,4.10
2023-04-24T09:00:53.528Z,4.18
2023-04-24T09:05:58.628Z,3.97
2023-04-24T09:11:04.221Z,3.95
2023-04-24T09:16:07.127Z,4.68
2023-04-24T09:21:11.150Z,4.10
2023-04-24T09:26:15.433Z,3.92
2023-04-24T09:31:23.166Z,4.17
2023-04-24T09:36:30.365Z,3.67
2023-04-24T09:41:34.410Z,3.40
2023-04-24T09:46:37.710Z,3.63
2023-04-24T09:51:41.856Z,3.20
2023-04-24T09:56:46.900Z,3.73
2023-04-24T10:01:52.016Z,3.65
2023-04-24T10:06:58.686Z,3.90
2023-04-24T10:12:03.406Z,3.80
2023-04-24T10:17:07.654Z,4.20
2023-04-24T10:22:11.211Z,3.57
2023-04-24T10:27:16.706Z,4.20
2023-04-24T10:32:19.692Z,3.70
2023-04-24T10:37:22.713Z,3.90
2023-04-24T10:42:28.443Z,3.92
2023-04-24T10:47:31.758Z,3.87
2023-04-24T10:52:48.253Z,3.90
2023-04-24T10:58:05.078Z,3.88
2023-04-24T11:03:23.434Z,3.55
2023-04-24T11:08:31.993Z,3.88
2023-04-24T11:13:56.180Z,3.73
2023-04-24T11:19:07.953Z,3.60
2023-04-24T11:24:27.038Z,3.70
2023-04-24T11:29:45.287Z,3.70
2023-04-24T11:35:09.738Z,3.17
2023-04-24T11:40:13.967Z,3.60
2023-04-24T11:45:23.243Z,3.50
2023-04-24T11:50:28.991Z,3.20
2023-04-24T11:55:31.757Z,3.38
2023-04-24T12:00:35.613Z,3.13
2023-04-24T12:05:40.383Z,3.30
2023-04-24T12:10:43.469Z,4.47
2023-04-24T12:15:46.358Z,3.67
2023-04-24T12:20:49.251Z,5.40
2023-04-24T12:25:53.069Z,4.47
2023-04-24T12:30:56.271Z,4.50
2023-04-24T12:35:59.473Z,5.00
2023-04-24T12:41:11.165Z,4.38
2023-04-24T12:46:15.169Z,3.20
2023-04-24T12:51:19.084Z,4.45
2023-04-24T12:56:22.006Z,4.13
2023-04-24T13:01:24.869Z,3.83
2023-04-24T13:06:27.930Z,4.15
2023-04-24T13:11:30.693Z,3.65
2023-04-24T13:16:33.483Z,3.90
2023-04-24T13:21:36.377Z,3.40
2023-04-24T13:26:39.169Z,3.70
2023-04-24T13:31:42.024Z,3.22
2023-04-24T13:36:45.618Z,3.38
2023-04-24T13:41:49.474Z,3.35
2023-04-24T13:46:55.673Z,2.90
2023-04-24T13:51:58.770Z,3.50
2023-04-24T13:57:02.367Z,3.33
2023-04-24T14:02:05.443Z,3.70
2023-04-24T14:07:09.301Z,3.13
2023-04-24T14:12:12.163Z,3.37
2023-04-24T14:17:15.207Z,2.50
2023-04-24T14:22:18.092Z,2.30
2023-04-24T14:27:21.292Z,2.22
2023-04-24T14:32:24.039Z,2.53
2023-04-24T14:37:27.066Z,2.57
2023-04-24T14:42:30.138Z,2.47
2023-04-24T14:47:32.965Z,1.80
2023-04-24T14:52:37.291Z,1.55
2023-04-24T14:57:40.307Z,1.67
2023-04-24T15:02:46.057Z,1.53
2023-04-24T15:07:48.921Z,1.75
2023-04-24T15:12:52.126Z,2.22
2023-04-24T15:17:54.936Z,1.88
2023-04-24T15:22:57.841Z,2.47
2023-04-24T15:28:01.603Z,2.53
2023-04-24T15:33:04.915Z,2.83
2023-04-24T15:38:07.747Z,1.92
2023-04-24T15:43:10.561Z,2.30
2023-04-24T15:48:13.388Z,2.00
2023-04-24T15:53:22.690Z,1.90
2023-04-24T15:58:25.856Z,2.20
2023-04-24T16:03:28.983Z,2.30
2023-04-24T16:08:32.056Z,1.90
2023-04-24T16:13:35.001Z,1.40
2023-04-24T16:18:37.677Z,1.63
2023-04-24T16:23:40.725Z,2.00
2023-04-24T16:28:43.750Z,2.10
2023-04-24T16:33:46.523Z,2.40
2023-04-24T16:38:49.985Z,2.53
2023-04-24T16:43:54.038Z,2.60
2023-04-24T16:48:58.449Z,2.83
2023-04-24T16:54:01.303Z,2.95
2023-04-24T16:59:04.084Z,3.28
2023-04-24T17:04:07.273Z,2.83
2023-04-24T17:09:10.067Z,3.27
2023-04-24T17:14:12.786Z,2.92
2023-04-24T17:19:15.703Z,2.78
2023-04-24T17:24:18.378Z,3.28
2023-04-24T17:29:21.157Z,3.22
2023-04-24T17:34:23.922Z,3.50
2023-04-24T17:39:27.055Z,3.25
2023-04-24T17:44:29.789Z,3.58
2023-04-24T17:49:33.093Z,3.10
2023-04-24T17:54:36.220Z,3.45
2023-04-24T17:59:39.016Z,3.77
2023-04-24T18:04:43.425Z,3.97
2023-04-24T18:09:46.829Z,4.00
2023-04-24T18:14:50.470Z,4.85
2023-04-24T18:19:55.855Z,4.85
2023-04-24T18:24:58.794Z,5.80
2023-04-24T18:30:01.550Z,5.90
2023-04-24T18:35:05.174Z,6.22
2023-04-24T18:40:09.930Z,4.90
2023-04-24T18:45:15.063Z,4.93
2023-04-24T18:50:19.609Z,6.93
2023-04-24T18:55:22.459Z,6.03
2023-04-24T19:00:25.300Z,5.18
2023-04-24T19:05:28.034Z,4.68
2023-04-24T19:10:31.654Z,5.22
2023-04-24T19:15:34.637Z,5.03
2023-04-24T19:20:37.581Z,6.53
2023-04-24T19:25:40.346Z,5.70
2023-04-24T19:30:43.206Z,4.93
2023-04-24T19:35:45.905Z,6.28
2023-04-24T19:40:48.866Z,6.70
2023-04-24T19:45:51.943Z,6.47
2023-04-24T19:50:54.725Z,7.40
2023-04-24T19:55:57.496Z,6.70
2023-04-24T20:01:01.310Z,6.47
2023-04-24T20:06:04.222Z,7.23
2023-04-24T20:11:07.090Z,6.82
2023-04-24T20:16:11.426Z,6.07
2023-04-24T20:21:14.525Z,6.78
2023-04-24T20:26:17.156Z,6.10
2023-04-24T20:31:20.127Z,5.87
2023-04-24T20:36:22.934Z,5.82
2023-04-24T20:41:26.721Z,5.00
2023-04-24T20:46:29.819Z,5.32
2023-04-24T20:51:33.086Z,5.50
2023-04-24T20:56:36.156Z,5.97
2023-04-24T21:01:38.927Z,5.88
2023-04-24T21:06:41.543Z,5.55
2023-04-24T21:11:44.327Z,6.32
2023-04-24T21:16:47.222Z,7.10
2023-04-24T21:21:49.933Z,7.20
2023-04-24T21:26:52.580Z,7.50
2023-04-24T21:31:55.363Z,9.57
2023-04-24T21:36:58.172Z,9.63
2023-04-24T21:42:00.916Z,9.23
2023-04-24T21:47:03.762Z,9.23
2023-04-24T21:52:06.368Z,9.75
2023-04-24T21:57:09.212Z,9.80
2023-04-24T22:02:12.190Z,9.73
2023-04-24T22:07:15.819Z,9.77
2023-04-24T22:12:18.541Z,9.37
2023-04-24T22:17:22.051Z,11.05
2023-04-24T22:22:24.748Z,9.25
2023-04-24T22:27:27.460Z,8.70
2023-04-24T22:32:33.269Z,7.53
2023-04-24T22:37:36.246Z,6.00
2023-04-24T22:42:39.244Z,6.75
2023-04-24T22:47:42.351Z,4.75
2023-04-24T22:52:46.059Z,4.32
2023-04-24T22:57:50.169Z,4.07
2023-04-24T23:02:53.431Z,5.60
2023-04-24T23:07:56.155Z,5.43
2023-04-24T23:12:58.928Z,5.28
2023-04-24T23:18:01.892Z,5.80
2023-04-24T23:23:04.998Z,5.85
2023-04-24T23:28:07.667Z,5.63
2023-04-24T23:33:10.371Z,6.70
2023-04-24T23:38:13.059Z,6.47
2023-04-24T23:43:15.843Z,4.90
2023-04-24T23:48:18.978Z,4.70
2023-04-24T23:53:22.161Z,3.40
2023-04-24T23:58:24.899Z,2.80
